Accueil
METAR-TAF:

METAR-TAF

Aéroports :

Aéroport international de Recife

Recife, Pernambouc, Brésil

latitude: 08-08S, longitude: 034-55W, altitude: 19 m

Observation

Le bulletin a été fait il y a 9 minutes, à 12:00 UTC
Vent 15 kt de sud/sud-est
Température 27°C
Humidité 66%
Pression 1019 hPa
Visibilité 10 km ou plus
Nuages épars à une hauteur de 2500 ft

METAR: SBRF 181200Z 15015KT 9999 SCT025 27/20 Q1019

Heure: 09:09 (12:09 UTC)

Prévision

Le bulletin a été fait il y a 2 heures et 9 minutes, à 10:00 UTC
Prévision valable du 18 à 12 UTC au 19 à 12 UTC
Vent 12 kt de sud/sud-est
Visibilité 10 km ou plus
Nuages épars à une hauteur de 2300 ft

TAF: SBRF 181000Z 1812/1912 15012KT 9999 SCT023 TX28/1814Z TN25/1909Z RMK PEU

Observations et prévisions météorologiques de plus de 4000 aéroports (messages METAR et TAF).

Les stations disponibles sont représentées par des disques jaunes et rouges sur la carte.

Passer la souris dessus pour voir le nom de la station.

Cliquer dessus pour voir les observations et prévisions météorologiques.

Pour changer de carte: cliquez sur les boutons verts avec une croix noire pour zoomer, sur le bouton vert avec un tiret pour effectuer un zoom arrière, ou sur les flèches vertes pour les cartes adjacentes.


METAR-TAF: